Terminal Aerodrome Forecast
Issued by NWS Duluth, MN

Home | Current Version | Previous Version | Text Only | Print | Product List | Glossary On
Versions: 1 2 3 4 5 6 7 8 9 10 11 12 13 14 15 16 17 18 19 20 21 22 23 24 25 26 27 28 29 30 31 32 33
000
FTUS43 KDLH 142153 AAC
TAFINL
TAF AMD
KINL 142153Z 1422/1518 29010KT 1SM -SN OVC018
      TEMPO 1422/1424 3SM -SN
     FM150000 30007KT 6SM -SN OVC015
     FM151600 22002KT P6SM SCT015=

USA.gov is the U.S. government's official web portal to all federal, state and local government web resources and services.